Time;durP1;ratioP1;P1;durP2;ratioP2;P2;SDS_P1;SDS_P2;PMS_P1;PMS_P2;Temp;Humidity;BMP_temperature;BMP_pressure;BME280_temperature;BME280_humidity;BME280_pressure;Samples;Min_cycle;Max_cycle;Signal;HPM_P1;HPM_P2
2022/06/19 10:53:50;;;;;;;;;;;13.50;95.70;;;;;;5041196;28;19931;-74
2022/06/19 10:56:23;;;;;;;;;;;13.50;95.70;;;;;;5014572;28;19929;-72
2022/06/19 10:58:50;;;;;;;;;;;13.50;95.80;;;;;;5048963;28;19952;-72
2022/06/19 11:04:07;;;;;;;;;;;13.40;95.80;;;;;;5033815;28;20413;-75
2022/06/19 11:06:39;;;;;;;;;;;13.50;95.90;;;;;;5030342;28;19912;-71
2022/06/19 11:09:07;;;;;;;;;;;13.50;95.80;;;;;;5021171;28;19952;-73
2022/06/19 11:11:34;;;;;;;;;;;13.50;95.80;;;;;;5030447;28;20399;-72
2022/06/19 11:14:03;;;;;;;;;;;13.50;95.80;;;;;;5049131;28;19975;-71
2022/06/19 11:16:31;;;;;;;;;;;13.50;95.80;;;;;;5042598;28;19912;-75
2022/06/19 11:18:58;;;;;;;;;;;13.50;95.70;;;;;;5069384;28;19913;-73
2022/06/19 11:21:26;;;;;;;;;;;13.40;95.70;;;;;;5070215;28;20010;-73
2022/06/19 11:23:54;;;;;;;;;;;13.50;95.70;;;;;;5055033;28;20473;-73
2022/06/19 11:26:20;;;;;;;;;;;13.40;95.70;;;;;;5041291;28;19948;-73
2022/06/19 11:28:50;;;;;;;;;;;13.40;95.70;;;;;;5067494;28;20255;-73
2022/06/19 11:31:18;;;;;;;;;;;13.40;95.80;;;;;;5072893;28;19920;-73
2022/06/19 11:33:44;;;;;;;;;;;13.40;95.80;;;;;;5053332;28;20457;-74
2022/06/19 11:36:23;;;;;;;;;;;13.40;95.80;;;;;;5054755;28;19916;-72
2022/06/19 11:38:50;;;;;;;;;;;13.40;95.70;;;;;;5070744;28;19916;-73
2022/06/19 11:41:23;;;;;;;;;;;13.40;95.70;;;;;;5071634;28;19923;-73
2022/06/19 11:44:01;;;;;;;;;;;13.40;95.80;;;;;;5065162;28;19987;-73
2022/06/19 11:46:28;;;;;;;;;;;13.40;95.80;;;;;;5053843;28;19917;-73
2022/06/19 11:48:54;;;;;;;;;;;13.40;95.80;;;;;;5072939;28;19912;-74
2022/06/19 11:51:22;;;;;;;;;;;13.40;95.80;;;;;;5072257;28;20037;-73
2022/06/19 13:14:26;;;;;;;;;;;13.30;96.50;;;;;;5028371;28;19927;-73
2022/06/19 13:17:00;;;;;;;;;;;13.20;96.50;;;;;;5009527;28;19980;-73
2022/06/19 13:19:35;;;;;;;;;;;13.20;96.50;;;;;;5044307;28;19912;-73
2022/06/19 13:22:03;;;;;;;;;;;13.20;96.50;;;;;;5018018;28;19915;-73
2022/06/19 13:24:32;;;;;;;;;;;13.20;96.60;;;;;;5040868;28;19956;-73
2022/06/19 13:27:17;;;;;;;;;;;13.20;96.60;;;;;;5053008;28;19915;-73
2022/06/19 13:29:49;;;;;;;;;;;13.20;96.70;;;;;;5025981;28;19912;-74
2022/06/19 13:32:22;;;;;;;;;;;13.20;96.70;;;;;;5043502;28;19917;-73
2022/06/19 13:35:02;;;;;;;;;;;13.20;96.70;;;;;;5053688;28;20321;-74
2022/06/19 13:37:37;;;;;;;;;;;13.20;96.70;;;;;;5031754;28;19939;-73
2022/06/19 13:40:03;;;;;;;;;;;13.20;96.80;;;;;;5035595;28;20266;-74
2022/06/19 13:42:48;;;;;;;;;;;13.20;96.80;;;;;;5053467;28;19912;-74
2022/06/19 13:45:19;;;;;;;;;;;13.20;96.80;;;;;;5043822;28;20003;-74
2022/06/19 13:47:47;;;;;;;;;;;13.20;96.80;;;;;;5053240;28;19913;-74
2022/06/19 13:50:16;;;;;;;;;;;13.20;96.80;;;;;;5035504;28;20022;-73
2022/06/19 13:52:42;;;;;;;;;;;13.10;96.70;;;;;;5035548;28;19930;-73
2022/06/19 13:55:15;;;;;;;;;;;13.10;96.70;;;;;;5051523;28;19917;-73
2022/06/19 13:57:44;;;;;;;;;;;13.00;96.60;;;;;;5041681;28;20272;-73
2022/06/19 14:00:16;;;;;;;;;;;13.00;96.60;;;;;;5035369;28;19909;-73
2022/06/19 14:02:43;;;;;;;;;;;13.00;96.60;;;;;;5035375;28;19917;-74
2022/06/19 14:05:15;;;;;;;;;;;13.00;96.70;;;;;;5050605;28;19919;-73
2022/06/19 14:07:48;;;;;;;;;;;13.00;96.70;;;;;;5035481;28;19987;-74
2022/06/19 14:10:23;;;;;;;;;;;13.00;96.70;;;;;;5035070;28;19916;-74
2022/06/19 14:12:52;;;;;;;;;;;12.90;96.60;;;;;;5037125;28;19960;-74
2022/06/19 16:06:18;;;;;;;;;;;12.70;96.30;;;;;;5020672;28;19971;-74
2022/06/19 16:09:11;;;;;;;;;;;12.70;96.20;;;;;;5039075;28;19963;-74
2022/06/19 16:11:38;;;;;;;;;;;12.70;96.20;;;;;;5044229;28;19943;-74
2022/06/19 16:14:10;;;;;;;;;;;12.70;96.30;;;;;;5035652;28;19949;-74
2022/06/19 16:16:50;;;;;;;;;;;12.70;96.20;;;;;;5000959;28;19913;-74
2022/06/19 16:19:19;;;;;;;;;;;12.70;96.30;;;;;;5019066;28;19911;-74
2022/06/19 16:21:55;;;;;;;;;;;12.70;96.20;;;;;;5055008;28;20541;-74
2022/06/19 16:24:21;;;;;;;;;;;12.70;96.30;;;;;;5040584;28;19909;-74
2022/06/19 16:26:52;;;;;;;;;;;12.70;96.40;;;;;;5054659;28;19971;-74
2022/06/19 16:29:20;;;;;;;;;;;12.70;96.40;;;;;;5028955;28;19915;-75
2022/06/19 16:31:51;;;;;;;;;;;12.70;96.40;;;;;;5037146;28;19920;-74
2022/06/19 16:34:19;;;;;;;;;;;12.70;96.40;;;;;;5054926;28;19916;-74
2022/06/19 16:45:22;;;;;;;;;;;12.60;96.40;;;;;;5024163;28;19919;-74
2022/06/19 16:47:49;;;;;;;;;;;12.60;96.40;;;;;;5028759;28;20378;-74
2022/06/19 16:50:17;;;;;;;;;;;12.60;96.40;;;;;;5018826;28;19967;-74
2022/06/19 16:52:48;;;;;;;;;;;12.60;96.40;;;;;;5017191;28;19971;-74
2022/06/19 16:55:26;;;;;;;;;;;12.60;96.40;;;;;;5016397;28;19913;-75
2022/06/19 16:57:58;;;;;;;;;;;12.60;96.40;;;;;;5033016;28;19917;-74
2022/06/19 17:00:24;;;;;;;;;;;12.60;96.50;;;;;;5016389;28;19913;-74
2022/06/19 17:02:51;;;;;;;;;;;12.60;96.50;;;;;;5036601;28;19914;-74
2022/06/19 17:05:18;;;;;;;;;;;12.60;96.50;;;;;;5049747;28;19920;-74
2022/06/19 22:40:28;;;;;;;;;;;12.80;97.20;;;;;;5028486;28;19932;-72
2022/06/19 22:42:55;;;;;;;;;;;12.80;97.30;;;;;;5014511;28;20371;-72
2022/06/19 22:45:23;;;;;;;;;;;12.90;97.30;;;;;;5013383;28;20307;-72
2022/06/19 22:47:50;;;;;;;;;;;12.90;97.20;;;;;;5012871;28;20414;-72
2022/06/19 22:50:18;;;;;;;;;;;12.90;97.20;;;;;;5014756;28;19998;-72
2022/06/19 22:52:44;;;;;;;;;;;12.90;97.10;;;;;;5014716;28;20368;-72
2022/06/19 22:55:11;;;;;;;;;;;12.80;97.10;;;;;;5014566;28;20280;-72
2022/06/19 22:57:40;;;;;;;;;;;12.90;97.10;;;;;;5014491;28;20314;-72
2022/06/19 23:02:52;;;;;;;;;;;12.90;97.20;;;;;;5010650;28;19956;-72
2022/06/19 23:05:29;;;;;;;;;;;13.00;97.20;;;;;;5014375;28;20315;-71
2022/06/19 23:07:56;;;;;;;;;;;13.00;97.30;;;;;;5024270;28;20004;-73
2022/06/19 23:10:22;;;;;;;;;;;13.00;97.30;;;;;;5032099;28;19914;-72
2022/06/19 23:12:49;;;;;;;;;;;13.10;97.30;;;;;;5031752;28;19925;-72
2022/06/19 23:15:16;;;;;;;;;;;13.10;97.30;;;;;;5032194;28;19909;-72
2022/06/19 23:17:42;;;;;;;;;;;13.20;97.30;;;;;;5032932;28;19959;-72
2022/06/19 23:20:31;;;;;;;;;;;13.20;97.40;;;;;;5036199;28;19909;-72
2022/06/19 23:22:58;;;;;;;;;;;13.20;97.40;;;;;;5018680;28;19956;-72
2022/06/19 23:25:25;;;;;;;;;;;13.20;97.50;;;;;;5036271;28;19975;-72
2022/06/19 23:27:51;;;;;;;;;;;13.30;97.50;;;;;;5035973;28;19932;-72
2022/06/19 23:30:18;;;;;;;;;;;13.30;97.50;;;;;;5018849;28;19968;-72
2022/06/19 23:32:45;;;;;;;;;;;13.40;97.50;;;;;;5018187;28;19925;-72
2022/06/19 23:35:12;;;;;;;;;;;13.40;97.50;;;;;;5004022;28;19921;-72
2022/06/19 23:37:38;;;;;;;;;;;13.40;97.50;;;;;;5012873;28;19913;-72
2022/06/19 23:40:06;;;;;;;;;;;13.50;97.50;;;;;;5035114;28;20298;-72
2022/06/19 23:42:32;;;;;;;;;;;13.60;97.50;;;;;;5035083;28;19921;-72
2022/06/19 23:45:19;;;;;;;;;;;13.60;97.60;;;;;;5017170;28;19909;-72
2022/06/19 23:47:46;;;;;;;;;;;13.70;97.60;;;;;;5034723;28;20359;-72
2022/06/19 23:50:17;;;;;;;;;;;13.70;97.60;;;;;;5034839;28;20387;-72
2022/06/19 23:52:43;;;;;;;;;;;13.70;97.60;;;;;;4999838;28;19917;-72
2022/06/19 23:55:10;;;;;;;;;;;13.80;97.60;;;;;;5017052;28;19919;-72
2022/06/19 23:57:37;;;;;;;;;;;13.80;97.60;;;;;;5017055;28;19913;-72
